sensor_id;sensor_type;location;lat;lon;timestamp;temperature;humidity
9762;DHT22;4920;49.594;11.022;2023-07-09T00:01:59;19.40;82.20
9762;DHT22;4920;49.594;11.022;2023-07-09T00:04:28;19.40;82.40
9762;DHT22;4920;49.594;11.022;2023-07-09T00:07:00;19.40;82.50
9762;DHT22;4920;49.594;11.022;2023-07-09T00:09:31;19.30;82.90
9762;DHT22;4920;49.594;11.022;2023-07-09T00:11:59;19.30;83.10
9762;DHT22;4920;49.594;11.022;2023-07-09T00:14:30;19.30;83.40
9762;DHT22;4920;49.594;11.022;2023-07-09T00:16:58;19.20;83.50
9762;DHT22;4920;49.594;11.022;2023-07-09T00:19:27;19.20;83.70
9762;DHT22;4920;49.594;11.022;2023-07-09T00:21:56;19.10;83.70
9762;DHT22;4920;49.594;11.022;2023-07-09T00:24:25;19.10;84.10
9762;DHT22;4920;49.594;11.022;2023-07-09T00:26:54;19.00;84.50
9762;DHT22;4920;49.594;11.022;2023-07-09T00:29:23;19.00;84.60
9762;DHT22;4920;49.594;11.022;2023-07-09T00:31:53;19.00;84.60
9762;DHT22;4920;49.594;11.022;2023-07-09T00:34:21;19.00;85.10
9762;DHT22;4920;49.594;11.022;2023-07-09T00:36:52;19.00;85.10
9762;DHT22;4920;49.594;11.022;2023-07-09T00:39:22;18.90;85.50
9762;DHT22;4920;49.594;11.022;2023-07-09T00:41:51;18.80;86.20
9762;DHT22;4920;49.594;11.022;2023-07-09T00:44:25;18.70;86.50
9762;DHT22;4920;49.594;11.022;2023-07-09T00:47:22;18.60;86.80
9762;DHT22;4920;49.594;11.022;2023-07-09T00:50:04;18.60;87.20
9762;DHT22;4920;49.594;11.022;2023-07-09T00:52:40;18.40;87.40
9762;DHT22;4920;49.594;11.022;2023-07-09T00:55:15;18.40;87.80
9762;DHT22;4920;49.594;11.022;2023-07-09T00:57:48;18.30;87.90
9762;DHT22;4920;49.594;11.022;2023-07-09T01:00:28;18.30;88.10
9762;DHT22;4920;49.594;11.022;2023-07-09T01:03:06;18.30;88.30
9762;DHT22;4920;49.594;11.022;2023-07-09T01:05:36;18.40;88.50
9762;DHT22;4920;49.594;11.022;2023-07-09T01:08:06;18.30;88.40
9762;DHT22;4920;49.594;11.022;2023-07-09T01:10:36;18.30;88.90
9762;DHT22;4920;49.594;11.022;2023-07-09T01:13:07;18.20;89.10
9762;DHT22;4920;49.594;11.022;2023-07-09T01:15:36;18.20;89.40
9762;DHT22;4920;49.594;11.022;2023-07-09T01:18:07;18.20;89.70
9762;DHT22;4920;49.594;11.022;2023-07-09T01:20:39;18.10;89.80
9762;DHT22;4920;49.594;11.022;2023-07-09T01:23:09;18.10;90.10
9762;DHT22;4920;49.594;11.022;2023-07-09T01:25:42;18.00;90.20
9762;DHT22;4920;49.594;11.022;2023-07-09T01:28:12;18.00;90.30
9762;DHT22;4920;49.594;11.022;2023-07-09T01:30:44;17.90;90.50
9762;DHT22;4920;49.594;11.022;2023-07-09T01:33:13;17.90;90.70
9762;DHT22;4920;49.594;11.022;2023-07-09T01:35:41;17.90;90.60
9762;DHT22;4920;49.594;11.022;2023-07-09T01:38:11;17.90;90.70
9762;DHT22;4920;49.594;11.022;2023-07-09T01:40:41;17.90;90.80
9762;DHT22;4920;49.594;11.022;2023-07-09T01:43:09;17.90;90.80
9762;DHT22;4920;49.594;11.022;2023-07-09T01:45:38;17.80;91.20
9762;DHT22;4920;49.594;11.022;2023-07-09T01:48:07;17.80;91.00
9762;DHT22;4920;49.594;11.022;2023-07-09T01:50:44;17.80;91.20
9762;DHT22;4920;49.594;11.022;2023-07-09T01:53:16;17.80;91.30
9762;DHT22;4920;49.594;11.022;2023-07-09T01:55:46;17.70;91.40
9762;DHT22;4920;49.594;11.022;2023-07-09T01:58:15;17.70;91.30
9762;DHT22;4920;49.594;11.022;2023-07-09T02:00:43;17.70;91.40
9762;DHT22;4920;49.594;11.022;2023-07-09T02:03:13;17.70;91.50
9762;DHT22;4920;49.594;11.022;2023-07-09T02:05:44;17.70;91.50
9762;DHT22;4920;49.594;11.022;2023-07-09T02:08:16;17.70;91.50
9762;DHT22;4920;49.594;11.022;2023-07-09T02:10:44;17.70;91.50
9762;DHT22;4920;49.594;11.022;2023-07-09T02:13:13;17.70;91.50
9762;DHT22;4920;49.594;11.022;2023-07-09T02:15:43;17.70;91.60
9762;DHT22;4920;49.594;11.022;2023-07-09T02:18:13;17.70;91.70
9762;DHT22;4920;49.594;11.022;2023-07-09T02:20:42;17.70;91.70
9762;DHT22;4920;49.594;11.022;2023-07-09T02:23:12;17.70;91.70
9762;DHT22;4920;49.594;11.022;2023-07-09T02:25:42;17.60;91.60
9762;DHT22;4920;49.594;11.022;2023-07-09T02:28:11;17.50;91.80
9762;DHT22;4920;49.594;11.022;2023-07-09T02:30:40;17.60;92.00
9762;DHT22;4920;49.594;11.022;2023-07-09T02:33:08;17.50;92.00
9762;DHT22;4920;49.594;11.022;2023-07-09T02:35:37;17.50;92.10
9762;DHT22;4920;49.594;11.022;2023-07-09T02:38:06;17.40;92.20
9762;DHT22;4920;49.594;11.022;2023-07-09T02:40:35;17.40;92.30
9762;DHT22;4920;49.594;11.022;2023-07-09T02:43:05;17.40;92.40
9762;DHT22;4920;49.594;11.022;2023-07-09T02:45:35;17.40;92.50
9762;DHT22;4920;49.594;11.022;2023-07-09T02:48:04;17.30;92.60
9762;DHT22;4920;49.594;11.022;2023-07-09T02:50:38;17.30;92.80
9762;DHT22;4920;49.594;11.022;2023-07-09T02:53:07;17.30;93.20
9762;DHT22;4920;49.594;11.022;2023-07-09T02:55:36;17.30;93.00
9762;DHT22;4920;49.594;11.022;2023-07-09T02:58:06;17.30;93.00
9762;DHT22;4920;49.594;11.022;2023-07-09T03:00:35;17.30;93.00
9762;DHT22;4920;49.594;11.022;2023-07-09T03:03:03;17.30;93.10
9762;DHT22;4920;49.594;11.022;2023-07-09T03:05:33;17.30;93.20
9762;DHT22;4920;49.594;11.022;2023-07-09T03:08:02;17.20;93.30
9762;DHT22;4920;49.594;11.022;2023-07-09T03:10:31;17.20;93.40
9762;DHT22;4920;49.594;11.022;2023-07-09T03:13:00;17.20;93.50
9762;DHT22;4920;49.594;11.022;2023-07-09T03:15:31;17.10;93.60
9762;DHT22;4920;49.594;11.022;2023-07-09T03:17:59;17.10;93.70
9762;DHT22;4920;49.594;11.022;2023-07-09T03:20:28;17.10;93.70
9762;DHT22;4920;49.594;11.022;2023-07-09T03:22:57;17.10;93.80
9762;DHT22;4920;49.594;11.022;2023-07-09T03:25:26;17.10;93.90
9762;DHT22;4920;49.594;11.022;2023-07-09T03:27:54;17.10;94.00
9762;DHT22;4920;49.594;11.022;2023-07-09T03:30:23;17.10;94.00
9762;DHT22;4920;49.594;11.022;2023-07-09T03:32:53;17.20;94.00
9762;DHT22;4920;49.594;11.022;2023-07-09T03:35:22;17.20;94.10
9762;DHT22;4920;49.594;11.022;2023-07-09T03:37:51;17.10;94.10
9762;DHT22;4920;49.594;11.022;2023-07-09T03:40:21;17.20;94.20
9762;DHT22;4920;49.594;11.022;2023-07-09T03:42:50;17.20;93.90
9762;DHT22;4920;49.594;11.022;2023-07-09T03:45:19;17.20;93.90
9762;DHT22;4920;49.594;11.022;2023-07-09T03:47:48;17.30;93.80
9762;DHT22;4920;49.594;11.022;2023-07-09T03:50:19;17.40;93.80
9762;DHT22;4920;49.594;11.022;2023-07-09T03:52:48;17.50;93.70
9762;DHT22;4920;49.594;11.022;2023-07-09T03:55:17;17.50;93.60
9762;DHT22;4920;49.594;11.022;2023-07-09T03:57:45;17.60;93.50
9762;DHT22;4920;49.594;11.022;2023-07-09T04:00:14;17.60;93.50
9762;DHT22;4920;49.594;11.022;2023-07-09T04:02:43;17.70;93.40
9762;DHT22;4920;49.594;11.022;2023-07-09T04:05:12;17.80;93.40
9762;DHT22;4920;49.594;11.022;2023-07-09T04:07:43;17.80;93.30
9762;DHT22;4920;49.594;11.022;2023-07-09T04:10:14;17.90;93.20
9762;DHT22;4920;49.594;11.022;2023-07-09T04:12:43;17.90;93.10
9762;DHT22;4920;49.594;11.022;2023-07-09T04:15:12;18.00;93.00
9762;DHT22;4920;49.594;11.022;2023-07-09T04:17:41;18.00;92.70
9762;DHT22;4920;49.594;11.022;2023-07-09T04:20:11;18.10;92.70
9762;DHT22;4920;49.594;11.022;2023-07-09T04:22:41;18.20;92.70
9762;DHT22;4920;49.594;11.022;2023-07-09T04:25:11;18.30;92.60
9762;DHT22;4920;49.594;11.022;2023-07-09T04:27:40;18.70;92.10
9762;DHT22;4920;49.594;11.022;2023-07-09T04:30:10;19.20;91.80
9762;DHT22;4920;49.594;11.022;2023-07-09T04:32:40;19.80;91.00
9762;DHT22;4920;49.594;11.022;2023-07-09T04:35:11;20.40;90.10
9762;DHT22;4920;49.594;11.022;2023-07-09T04:37:42;20.80;88.70
9762;DHT22;4920;49.594;11.022;2023-07-09T04:40:12;21.40;87.20
9762;DHT22;4920;49.594;11.022;2023-07-09T04:42:41;21.80;85.20
9762;DHT22;4920;49.594;11.022;2023-07-09T04:45:12;22.20;83.80
9762;DHT22;4920;49.594;11.022;2023-07-09T04:47:40;22.60;81.90
9762;DHT22;4920;49.594;11.022;2023-07-09T04:50:10;22.90;80.60
9762;DHT22;4920;49.594;11.022;2023-07-09T04:52:39;23.10;79.20
9762;DHT22;4920;49.594;11.022;2023-07-09T04:55:09;23.30;78.80
9762;DHT22;4920;49.594;11.022;2023-07-09T04:57:38;23.60;78.40
9762;DHT22;4920;49.594;11.022;2023-07-09T05:00:08;23.90;77.30
9762;DHT22;4920;49.594;11.022;2023-07-09T05:02:38;24.20;76.50
9762;DHT22;4920;49.594;11.022;2023-07-09T05:05:07;24.40;75.60
9762;DHT22;4920;49.594;11.022;2023-07-09T05:07:36;24.70;74.90
9762;DHT22;4920;49.594;11.022;2023-07-09T05:10:05;25.10;74.30
9762;DHT22;4920;49.594;11.022;2023-07-09T05:12:36;25.30;73.00
9762;DHT22;4920;49.594;11.022;2023-07-09T05:15:15;25.50;72.10
9762;DHT22;4920;49.594;11.022;2023-07-09T05:17:44;25.80;71.40
9762;DHT22;4920;49.594;11.022;2023-07-09T05:20:14;25.90;70.90
9762;DHT22;4920;49.594;11.022;2023-07-09T05:22:43;26.10;69.80
9762;DHT22;4920;49.594;11.022;2023-07-09T05:25:12;26.30;69.50
9762;DHT22;4920;49.594;11.022;2023-07-09T05:27:42;26.40;68.70
9762;DHT22;4920;49.594;11.022;2023-07-09T05:30:11;26.60;68.70
9762;DHT22;4920;49.594;11.022;2023-07-09T05:32:40;26.70;68.00
9762;DHT22;4920;49.594;11.022;2023-07-09T05:35:08;26.90;67.80
9762;DHT22;4920;49.594;11.022;2023-07-09T05:37:37;27.00;67.50
9762;DHT22;4920;49.594;11.022;2023-07-09T05:40:07;27.20;66.60
9762;DHT22;4920;49.594;11.022;2023-07-09T05:42:37;27.40;65.40
9762;DHT22;4920;49.594;11.022;2023-07-09T05:45:08;27.50;65.20
9762;DHT22;4920;49.594;11.022;2023-07-09T05:47:37;27.70;64.40
9762;DHT22;4920;49.594;11.022;2023-07-09T05:50:07;27.90;63.80
9762;DHT22;4920;49.594;11.022;2023-07-09T05:52:35;27.90;63.20
9762;DHT22;4920;49.594;11.022;2023-07-09T05:55:05;28.10;62.60
9762;DHT22;4920;49.594;11.022;2023-07-09T05:57:34;28.10;62.00
9762;DHT22;4920;49.594;11.022;2023-07-09T06:00:03;28.20;61.70
9762;DHT22;4920;49.594;11.022;2023-07-09T06:02:40;28.20;61.20
9762;DHT22;4920;49.594;11.022;2023-07-09T06:05:09;28.20;60.80
9762;DHT22;4920;49.594;11.022;2023-07-09T06:07:39;28.20;61.50
9762;DHT22;4920;49.594;11.022;2023-07-09T06:10:09;28.20;61.50
9762;DHT22;4920;49.594;11.022;2023-07-09T06:12:37;28.20;61.20
9762;DHT22;4920;49.594;11.022;2023-07-09T06:15:08;28.30;60.90
9762;DHT22;4920;49.594;11.022;2023-07-09T06:17:36;28.30;60.80
9762;DHT22;4920;49.594;11.022;2023-07-09T06:20:08;28.30;60.50
9762;DHT22;4920;49.594;11.022;2023-07-09T06:22:38;28.40;60.50
9762;DHT22;4920;49.594;11.022;2023-07-09T06:25:07;28.40;60.30
9762;DHT22;4920;49.594;11.022;2023-07-09T06:27:35;28.40;60.50
9762;DHT22;4920;49.594;11.022;2023-07-09T06:30:05;28.40;61.00
9762;DHT22;4920;49.594;11.022;2023-07-09T06:32:33;28.30;61.20
9762;DHT22;4920;49.594;11.022;2023-07-09T06:35:02;28.30;61.30
9762;DHT22;4920;49.594;11.022;2023-07-09T06:37:33;28.30;61.40
9762;DHT22;4920;49.594;11.022;2023-07-09T06:40:01;28.30;61.60
9762;DHT22;4920;49.594;11.022;2023-07-09T06:42:35;28.30;61.70
9762;DHT22;4920;49.594;11.022;2023-07-09T06:45:11;28.30;61.90
9762;DHT22;4920;49.594;11.022;2023-07-09T06:47:40;28.20;62.20
9762;DHT22;4920;49.594;11.022;2023-07-09T06:50:09;28.30;62.50
9762;DHT22;4920;49.594;11.022;2023-07-09T06:52:40;28.20;62.60
9762;DHT22;4920;49.594;11.022;2023-07-09T06:55:08;28.20;62.40
9762;DHT22;4920;49.594;11.022;2023-07-09T06:57:37;28.20;61.80
9762;DHT22;4920;49.594;11.022;2023-07-09T07:00:07;28.20;62.10
9762;DHT22;4920;49.594;11.022;2023-07-09T07:02:36;28.20;62.40
9762;DHT22;4920;49.594;11.022;2023-07-09T07:05:05;28.20;61.60
9762;DHT22;4920;49.594;11.022;2023-07-09T07:07:34;28.20;61.80
9762;DHT22;4920;49.594;11.022;2023-07-09T07:10:05;28.30;62.00
9762;DHT22;4920;49.594;11.022;2023-07-09T07:12:42;28.40;62.10
9762;DHT22;4920;49.594;11.022;2023-07-09T07:15:14;28.40;61.60
9762;DHT22;4920;49.594;11.022;2023-07-09T07:17:43;28.50;61.60
9762;DHT22;4920;49.594;11.022;2023-07-09T07:20:13;28.40;61.80
9762;DHT22;4920;49.594;11.022;2023-07-09T07:22:42;28.50;62.40
9762;DHT22;4920;49.594;11.022;2023-07-09T07:25:13;28.50;61.80
9762;DHT22;4920;49.594;11.022;2023-07-09T07:27:42;28.50;61.80
9762;DHT22;4920;49.594;11.022;2023-07-09T07:30:11;28.50;62.00
9762;DHT22;4920;49.594;11.022;2023-07-09T07:32:44;28.60;61.90
9762;DHT22;4920;49.594;11.022;2023-07-09T07:35:13;28.60;61.20
9762;DHT22;4920;49.594;11.022;2023-07-09T07:37:42;28.60;61.60
9762;DHT22;4920;49.594;11.022;2023-07-09T07:40:12;28.60;61.70
9762;DHT22;4920;49.594;11.022;2023-07-09T07:42:41;28.70;62.10
9762;DHT22;4920;49.594;11.022;2023-07-09T07:45:10;28.70;61.40
9762;DHT22;4920;49.594;11.022;2023-07-09T07:47:38;28.80;61.50
9762;DHT22;4920;49.594;11.022;2023-07-09T07:50:09;28.90;62.50
9762;DHT22;4920;49.594;11.022;2023-07-09T07:52:38;29.00;61.80
9762;DHT22;4920;49.594;11.022;2023-07-09T07:55:07;29.00;61.60
9762;DHT22;4920;49.594;11.022;2023-07-09T07:57:43;29.10;61.50
9762;DHT22;4920;49.594;11.022;2023-07-09T08:00:13;29.20;61.60
9762;DHT22;4920;49.594;11.022;2023-07-09T08:02:42;29.20;61.30
9762;DHT22;4920;49.594;11.022;2023-07-09T08:05:11;29.30;61.20
9762;DHT22;4920;49.594;11.022;2023-07-09T08:07:40;29.30;60.80
9762;DHT22;4920;49.594;11.022;2023-07-09T08:10:08;29.40;60.80
9762;DHT22;4920;49.594;11.022;2023-07-09T08:12:37;29.60;60.90
9762;DHT22;4920;49.594;11.022;2023-07-09T08:15:10;29.70;60.10
9762;DHT22;4920;49.594;11.022;2023-07-09T08:17:39;29.80;60.20
9762;DHT22;4920;49.594;11.022;2023-07-09T08:20:08;29.80;60.30
9762;DHT22;4920;49.594;11.022;2023-07-09T08:22:37;29.90;59.80
9762;DHT22;4920;49.594;11.022;2023-07-09T08:25:07;29.90;59.60
9762;DHT22;4920;49.594;11.022;2023-07-09T08:27:36;30.00;59.50
9762;DHT22;4920;49.594;11.022;2023-07-09T08:30:08;30.10;59.50
9762;DHT22;4920;49.594;11.022;2023-07-09T08:32:37;30.20;59.50
9762;DHT22;4920;49.594;11.022;2023-07-09T08:35:06;30.20;59.20
9762;DHT22;4920;49.594;11.022;2023-07-09T08:37:40;30.30;59.60
9762;DHT22;4920;49.594;11.022;2023-07-09T08:40:12;30.30;58.70
9762;DHT22;4920;49.594;11.022;2023-07-09T08:42:44;30.30;58.90
9762;DHT22;4920;49.594;11.022;2023-07-09T08:45:36;30.40;59.00
9762;DHT22;4920;49.594;11.022;2023-07-09T08:48:15;30.50;58.60
9762;DHT22;4920;49.594;11.022;2023-07-09T08:50:50;30.60;59.00
9762;DHT22;4920;49.594;11.022;2023-07-09T08:53:27;30.70;58.50
9762;DHT22;4920;49.594;11.022;2023-07-09T08:55:59;30.80;58.00
9762;DHT22;4920;49.594;11.022;2023-07-09T08:58:29;30.90;57.40
9762;DHT22;4920;49.594;11.022;2023-07-09T09:01:03;31.00;56.80
9762;DHT22;4920;49.594;11.022;2023-07-09T09:03:37;31.10;56.40
9762;DHT22;4920;49.594;11.022;2023-07-09T09:06:12;31.10;56.30
9762;DHT22;4920;49.594;11.022;2023-07-09T09:08:46;31.10;56.70
9762;DHT22;4920;49.594;11.022;2023-07-09T09:11:21;31.30;56.30
9762;DHT22;4920;49.594;11.022;2023-07-09T09:13:55;31.30;56.50
9762;DHT22;4920;49.594;11.022;2023-07-09T09:16:31;31.50;56.10
9762;DHT22;4920;49.594;11.022;2023-07-09T09:19:01;31.60;55.40
9762;DHT22;4920;49.594;11.022;2023-07-09T09:21:33;31.70;55.60
9762;DHT22;4920;49.594;11.022;2023-07-09T09:24:13;31.80;54.30
9762;DHT22;4920;49.594;11.022;2023-07-09T09:26:43;31.90;53.90
9762;DHT22;4920;49.594;11.022;2023-07-09T09:29:14;32.00;54.10
9762;DHT22;4920;49.594;11.022;2023-07-09T09:31:48;32.10;54.10
9762;DHT22;4920;49.594;11.022;2023-07-09T09:34:22;32.20;53.90
9762;DHT22;4920;49.594;11.022;2023-07-09T09:36:51;32.30;53.80
9762;DHT22;4920;49.594;11.022;2023-07-09T09:39:23;32.40;53.10
9762;DHT22;4920;49.594;11.022;2023-07-09T09:41:53;32.50;52.70
9762;DHT22;4920;49.594;11.022;2023-07-09T09:44:25;32.60;52.10
9762;DHT22;4920;49.594;11.022;2023-07-09T09:46:57;32.60;52.00
9762;DHT22;4920;49.594;11.022;2023-07-09T09:49:28;32.70;52.10
9762;DHT22;4920;49.594;11.022;2023-07-09T09:52:02;32.80;51.30
9762;DHT22;4920;49.594;11.022;2023-07-09T09:54:31;32.90;50.60
9762;DHT22;4920;49.594;11.022;2023-07-09T09:57:00;33.00;50.00
9762;DHT22;4920;49.594;11.022;2023-07-09T09:59:31;33.10;49.10
9762;DHT22;4920;49.594;11.022;2023-07-09T10:02:15;33.10;48.70
9762;DHT22;4920;49.594;11.022;2023-07-09T10:04:45;33.00;47.70
9762;DHT22;4920;49.594;11.022;2023-07-09T10:07:20;33.00;48.90
9762;DHT22;4920;49.594;11.022;2023-07-09T10:09:51;33.00;48.90
9762;DHT22;4920;49.594;11.022;2023-07-09T10:12:36;33.00;49.00
9762;DHT22;4920;49.594;11.022;2023-07-09T10:15:17;33.00;48.90
9762;DHT22;4920;49.594;11.022;2023-07-09T10:17:54;33.00;50.00
9762;DHT22;4920;49.594;11.022;2023-07-09T10:20:29;33.10;49.50
9762;DHT22;4920;49.594;11.022;2023-07-09T10:23:03;33.30;49.30
9762;DHT22;4920;49.594;11.022;2023-07-09T10:25:48;33.40;47.70
9762;DHT22;4920;49.594;11.022;2023-07-09T10:28:35;33.50;47.80
9762;DHT22;4920;49.594;11.022;2023-07-09T10:31:11;33.50;48.20
9762;DHT22;4920;49.594;11.022;2023-07-09T10:33:55;33.60;48.30
9762;DHT22;4920;49.594;11.022;2023-07-09T10:36:35;33.60;48.20
9762;DHT22;4920;49.594;11.022;2023-07-09T10:39:08;33.70;46.90
9762;DHT22;4920;49.594;11.022;2023-07-09T10:41:38;33.70;46.30
9762;DHT22;4920;49.594;11.022;2023-07-09T10:44:13;33.70;46.50
9762;DHT22;4920;49.594;11.022;2023-07-09T10:46:48;33.70;46.90
9762;DHT22;4920;49.594;11.022;2023-07-09T10:49:31;33.80;46.80
9762;DHT22;4920;49.594;11.022;2023-07-09T10:52:06;33.90;45.50
9762;DHT22;4920;49.594;11.022;2023-07-09T10:54:39;33.90;46.00
9762;DHT22;4920;49.594;11.022;2023-07-09T10:57:13;34.10;46.70
9762;DHT22;4920;49.594;11.022;2023-07-09T10:59:46;34.20;46.50
9762;DHT22;4920;49.594;11.022;2023-07-09T11:02:21;34.20;45.10
9762;DHT22;4920;49.594;11.022;2023-07-09T11:04:55;34.30;45.80
9762;DHT22;4920;49.594;11.022;2023-07-09T11:07:30;34.30;45.10
9762;DHT22;4920;49.594;11.022;2023-07-09T11:10:02;34.30;44.70
9762;DHT22;4920;49.594;11.022;2023-07-09T11:12:35;34.20;44.90
9762;DHT22;4920;49.594;11.022;2023-07-09T11:15:08;34.20;45.60
9762;DHT22;4920;49.594;11.022;2023-07-09T11:17:42;34.20;45.90
9762;DHT22;4920;49.594;11.022;2023-07-09T11:20:20;34.30;46.30
9762;DHT22;4920;49.594;11.022;2023-07-09T11:22:53;34.50;46.30
9762;DHT22;4920;49.594;11.022;2023-07-09T11:25:39;34.70;46.70
9762;DHT22;4920;49.594;11.022;2023-07-09T11:28:08;34.90;46.00
9762;DHT22;4920;49.594;11.022;2023-07-09T11:30:49;34.90;45.50
9762;DHT22;4920;49.594;11.022;2023-07-09T11:33:19;34.90;45.50
9762;DHT22;4920;49.594;11.022;2023-07-09T11:36:07;34.90;45.50
9762;DHT22;4920;49.594;11.022;2023-07-09T11:38:40;34.90;45.60
9762;DHT22;4920;49.594;11.022;2023-07-09T11:41:27;35.00;45.60
9762;DHT22;4920;49.594;11.022;2023-07-09T11:44:13;35.00;45.60
9762;DHT22;4920;49.594;11.022;2023-07-09T11:49:41;35.20;43.70
9762;DHT22;4920;49.594;11.022;2023-07-09T11:52:20;35.20;44.00
9762;DHT22;4920;49.594;11.022;2023-07-09T11:54:50;35.20;44.10
9762;DHT22;4920;49.594;11.022;2023-07-09T11:57:20;35.20;44.00
9762;DHT22;4920;49.594;11.022;2023-07-09T11:59:48;35.20;43.90
9762;DHT22;4920;49.594;11.022;2023-07-09T12:02:19;35.20;43.00
9762;DHT22;4920;49.594;11.022;2023-07-09T12:04:49;35.20;43.40
9762;DHT22;4920;49.594;11.022;2023-07-09T12:07:23;35.20;43.10
9762;DHT22;4920;49.594;11.022;2023-07-09T12:09:53;35.20;43.80
9762;DHT22;4920;49.594;11.022;2023-07-09T12:12:24;35.30;43.70
9762;DHT22;4920;49.594;11.022;2023-07-09T12:14:53;35.40;43.80
9762;DHT22;4920;49.594;11.022;2023-07-09T12:17:25;35.50;43.70
9762;DHT22;4920;49.594;11.022;2023-07-09T12:19:57;35.50;43.50
9762;DHT22;4920;49.594;11.022;2023-07-09T12:22:27;35.60;43.20
9762;DHT22;4920;49.594;11.022;2023-07-09T12:24:56;35.50;42.70
9762;DHT22;4920;49.594;11.022;2023-07-09T12:27:27;35.50;43.00
9762;DHT22;4920;49.594;11.022;2023-07-09T12:30:11;35.60;42.10
9762;DHT22;4920;49.594;11.022;2023-07-09T12:32:43;35.50;42.00
9762;DHT22;4920;49.594;11.022;2023-07-09T12:35:13;35.50;42.60
9762;DHT22;4920;49.594;11.022;2023-07-09T12:37:46;35.40;42.90
9762;DHT22;4920;49.594;11.022;2023-07-09T12:40:17;35.50;43.30
9762;DHT22;4920;49.594;11.022;2023-07-09T12:42:48;35.70;43.00
9762;DHT22;4920;49.594;11.022;2023-07-09T12:45:18;35.90;42.40
9762;DHT22;4920;49.594;11.022;2023-07-09T12:47:48;36.10;41.70
9762;DHT22;4920;49.594;11.022;2023-07-09T12:50:23;36.20;40.90
9762;DHT22;4920;49.594;11.022;2023-07-09T12:53:00;36.10;40.80
9762;DHT22;4920;49.594;11.022;2023-07-09T12:55:37;36.00;40.50
9762;DHT22;4920;49.594;11.022;2023-07-09T12:58:10;35.90;41.30
9762;DHT22;4920;49.594;11.022;2023-07-09T13:00:39;36.00;41.40
9762;DHT22;4920;49.594;11.022;2023-07-09T13:03:13;36.00;41.20
9762;DHT22;4920;49.594;11.022;2023-07-09T13:05:52;35.90;40.90
9762;DHT22;4920;49.594;11.022;2023-07-09T13:08:24;35.90;41.20
9762;DHT22;4920;49.594;11.022;2023-07-09T13:10:53;36.00;41.40
9762;DHT22;4920;49.594;11.022;2023-07-09T13:13:23;36.10;41.50
9762;DHT22;4920;49.594;11.022;2023-07-09T13:15:54;36.10;41.00
9762;DHT22;4920;49.594;11.022;2023-07-09T13:18:26;36.10;40.70
9762;DHT22;4920;49.594;11.022;2023-07-09T13:20:55;36.10;40.90
9762;DHT22;4920;49.594;11.022;2023-07-09T13:23:28;36.10;40.80
9762;DHT22;4920;49.594;11.022;2023-07-09T13:25:56;36.10;41.30
9762;DHT22;4920;49.594;11.022;2023-07-09T13:28:28;36.30;41.60
9762;DHT22;4920;49.594;11.022;2023-07-09T13:31:00;36.40;40.80
9762;DHT22;4920;49.594;11.022;2023-07-09T13:33:30;36.60;40.00
9762;DHT22;4920;49.594;11.022;2023-07-09T13:35:58;36.60;40.00
9762;DHT22;4920;49.594;11.022;2023-07-09T13:38:28;36.60;40.30
9762;DHT22;4920;49.594;11.022;2023-07-09T13:40:59;36.60;40.20
9762;DHT22;4920;49.594;11.022;2023-07-09T13:43:31;36.70;40.10
9762;DHT22;4920;49.594;11.022;2023-07-09T13:46:02;36.90;40.20
9762;DHT22;4920;49.594;11.022;2023-07-09T13:48:32;36.90;40.40
9762;DHT22;4920;49.594;11.022;2023-07-09T13:51:05;37.10;40.90
9762;DHT22;4920;49.594;11.022;2023-07-09T13:53:36;37.20;40.30
9762;DHT22;4920;49.594;11.022;2023-07-09T13:56:04;37.30;40.50
9762;DHT22;4920;49.594;11.022;2023-07-09T13:58:33;37.40;40.10
9762;DHT22;4920;49.594;11.022;2023-07-09T14:01:10;37.40;40.00
9762;DHT22;4920;49.594;11.022;2023-07-09T14:03:40;37.30;39.70
9762;DHT22;4920;49.594;11.022;2023-07-09T14:06:12;37.30;39.70
9762;DHT22;4920;49.594;11.022;2023-07-09T14:08:42;37.30;40.60
9762;DHT22;4920;49.594;11.022;2023-07-09T14:11:11;37.30;40.50
9762;DHT22;4920;49.594;11.022;2023-07-09T14:13:41;37.40;40.00
9762;DHT22;4920;49.594;11.022;2023-07-09T14:16:10;37.40;40.10
9762;DHT22;4920;49.594;11.022;2023-07-09T14:18:39;37.50;39.80
9762;DHT22;4920;49.594;11.022;2023-07-09T14:21:11;37.60;39.50
9762;DHT22;4920;49.594;11.022;2023-07-09T14:23:43;37.60;40.00
9762;DHT22;4920;49.594;11.022;2023-07-09T14:26:12;37.50;39.60
9762;DHT22;4920;49.594;11.022;2023-07-09T14:28:40;37.50;39.90
9762;DHT22;4920;49.594;11.022;2023-07-09T14:31:19;37.60;39.90
9762;DHT22;4920;49.594;11.022;2023-07-09T14:33:48;37.70;39.70
9762;DHT22;4920;49.594;11.022;2023-07-09T14:36:17;37.70;39.30
9762;DHT22;4920;49.594;11.022;2023-07-09T14:38:47;37.80;38.80
9762;DHT22;4920;49.594;11.022;2023-07-09T14:41:20;37.80;39.30
9762;DHT22;4920;49.594;11.022;2023-07-09T14:43:50;37.90;38.30
9762;DHT22;4920;49.594;11.022;2023-07-09T14:46:19;37.90;38.10
9762;DHT22;4920;49.594;11.022;2023-07-09T14:48:47;37.80;38.80
9762;DHT22;4920;49.594;11.022;2023-07-09T14:51:16;37.80;38.20
9762;DHT22;4920;49.594;11.022;2023-07-09T14:53:46;37.70;38.00
9762;DHT22;4920;49.594;11.022;2023-07-09T14:56:15;37.70;38.40
9762;DHT22;4920;49.594;11.022;2023-07-09T14:58:44;37.70;38.00
9762;DHT22;4920;49.594;11.022;2023-07-09T15:01:13;37.60;38.00
9762;DHT22;4920;49.594;11.022;2023-07-09T15:03:42;37.50;38.20
9762;DHT22;4920;49.594;11.022;2023-07-09T15:06:11;37.40;37.40
9762;DHT22;4920;49.594;11.022;2023-07-09T15:08:40;37.30;38.30
9762;DHT22;4920;49.594;11.022;2023-07-09T15:11:10;37.20;38.00
9762;DHT22;4920;49.594;11.022;2023-07-09T15:13:38;37.10;38.40
9762;DHT22;4920;49.594;11.022;2023-07-09T15:16:08;37.10;38.40
9762;DHT22;4920;49.594;11.022;2023-07-09T15:18:37;37.10;39.00
9762;DHT22;4920;49.594;11.022;2023-07-09T15:21:05;37.10;38.70
9762;DHT22;4920;49.594;11.022;2023-07-09T15:23:38;37.20;38.60
9762;DHT22;4920;49.594;11.022;2023-07-09T15:26:12;37.10;38.40
9762;DHT22;4920;49.594;11.022;2023-07-09T15:28:42;37.10;38.40
9762;DHT22;4920;49.594;11.022;2023-07-09T15:31:11;37.10;38.80
9762;DHT22;4920;49.594;11.022;2023-07-09T15:33:40;37.10;38.80
9762;DHT22;4920;49.594;11.022;2023-07-09T15:36:10;37.00;38.20
9762;DHT22;4920;49.594;11.022;2023-07-09T15:38:40;37.00;38.10
9762;DHT22;4920;49.594;11.022;2023-07-09T15:41:13;37.10;38.40
9762;DHT22;4920;49.594;11.022;2023-07-09T15:43:43;37.20;38.60
9762;DHT22;4920;49.594;11.022;2023-07-09T15:46:16;37.20;37.90
9762;DHT22;4920;49.594;11.022;2023-07-09T15:48:47;37.30;38.10
9762;DHT22;4920;49.594;11.022;2023-07-09T15:51:16;37.30;37.90
9762;DHT22;4920;49.594;11.022;2023-07-09T15:53:45;37.30;37.40
9762;DHT22;4920;49.594;11.022;2023-07-09T15:56:22;37.30;37.80
9762;DHT22;4920;49.594;11.022;2023-07-09T15:58:54;37.40;38.00
9762;DHT22;4920;49.594;11.022;2023-07-09T16:01:23;37.40;37.30
9762;DHT22;4920;49.594;11.022;2023-07-09T16:03:57;37.30;37.30
9762;DHT22;4920;49.594;11.022;2023-07-09T16:06:27;37.30;37.90
9762;DHT22;4920;49.594;11.022;2023-07-09T16:08:56;37.30;38.10
9762;DHT22;4920;49.594;11.022;2023-07-09T16:11:27;37.30;38.60
9762;DHT22;4920;49.594;11.022;2023-07-09T16:13:56;37.30;38.20